sensor_id;sensor_type;location;lat;lon;timestamp;temperature;humidity
9973;DHT22;5027;53.560;10.062;2022-10-31T00:01:39;17.80;99.90
9973;DHT22;5027;53.560;10.062;2022-10-31T00:04:06;17.80;99.90
9973;DHT22;5027;53.560;10.062;2022-10-31T00:06:33;17.80;99.90
9973;DHT22;5027;53.560;10.062;2022-10-31T00:09:01;17.80;99.90
9973;DHT22;5027;53.560;10.062;2022-10-31T00:11:28;17.80;99.90
9973;DHT22;5027;53.560;10.062;2022-10-31T00:13:59;17.80;99.90
9973;DHT22;5027;53.560;10.062;2022-10-31T00:16:27;17.70;99.90
9973;DHT22;5027;53.560;10.062;2022-10-31T00:18:58;17.70;99.90
9973;DHT22;5027;53.560;10.062;2022-10-31T00:21:25;17.70;99.90
9973;DHT22;5027;53.560;10.062;2022-10-31T00:23:52;17.70;99.90
9973;DHT22;5027;53.560;10.062;2022-10-31T00:26:18;17.70;99.90
9973;DHT22;5027;53.560;10.062;2022-10-31T00:28:46;17.80;99.90
9973;DHT22;5027;53.560;10.062;2022-10-31T00:31:13;17.80;99.90
9973;DHT22;5027;53.560;10.062;2022-10-31T00:33:41;17.70;99.90
9973;DHT22;5027;53.560;10.062;2022-10-31T00:36:12;17.70;99.90
9973;DHT22;5027;53.560;10.062;2022-10-31T00:38:40;17.70;99.90
9973;DHT22;5027;53.560;10.062;2022-10-31T00:41:07;17.70;99.90
9973;DHT22;5027;53.560;10.062;2022-10-31T00:43:33;17.70;99.90
9973;DHT22;5027;53.560;10.062;2022-10-31T00:46:00;17.70;99.90
9973;DHT22;5027;53.560;10.062;2022-10-31T00:48:27;17.60;99.90
9973;DHT22;5027;53.560;10.062;2022-10-31T00:50:53;17.60;99.90
9973;DHT22;5027;53.560;10.062;2022-10-31T00:53:21;17.70;99.90
9973;DHT22;5027;53.560;10.062;2022-10-31T00:55:48;17.60;99.90
9973;DHT22;5027;53.560;10.062;2022-10-31T00:58:15;17.60;99.90
9973;DHT22;5027;53.560;10.062;2022-10-31T01:00:42;17.70;99.90
9973;DHT22;5027;53.560;10.062;2022-10-31T01:03:15;17.70;99.90
9973;DHT22;5027;53.560;10.062;2022-10-31T01:05:41;17.70;99.90
9973;DHT22;5027;53.560;10.062;2022-10-31T01:08:08;17.60;99.90
9973;DHT22;5027;53.560;10.062;2022-10-31T01:10:34;17.70;99.90
9973;DHT22;5027;53.560;10.062;2022-10-31T01:13:01;17.60;99.90
9973;DHT22;5027;53.560;10.062;2022-10-31T01:15:28;17.60;99.90
9973;DHT22;5027;53.560;10.062;2022-10-31T01:17:55;17.60;99.90
9973;DHT22;5027;53.560;10.062;2022-10-31T01:20:21;17.60;99.90
9973;DHT22;5027;53.560;10.062;2022-10-31T01:22:48;17.60;99.90
9973;DHT22;5027;53.560;10.062;2022-10-31T01:25:15;17.70;99.90
9973;DHT22;5027;53.560;10.062;2022-10-31T01:27:41;17.60;99.90
9973;DHT22;5027;53.560;10.062;2022-10-31T01:30:10;17.60;99.90
9973;DHT22;5027;53.560;10.062;2022-10-31T01:32:37;17.70;99.90
9973;DHT22;5027;53.560;10.062;2022-10-31T01:35:04;17.60;99.90
9973;DHT22;5027;53.560;10.062;2022-10-31T01:37:31;17.60;99.90
9973;DHT22;5027;53.560;10.062;2022-10-31T01:39:57;17.70;99.90
9973;DHT22;5027;53.560;10.062;2022-10-31T01:42:24;17.80;99.90
9973;DHT22;5027;53.560;10.062;2022-10-31T01:44:54;17.80;99.90
9973;DHT22;5027;53.560;10.062;2022-10-31T01:47:29;18.00;99.90
9973;DHT22;5027;53.560;10.062;2022-10-31T01:50:00;18.00;99.90
9973;DHT22;5027;53.560;10.062;2022-10-31T01:52:38;17.90;99.90
9973;DHT22;5027;53.560;10.062;2022-10-31T01:55:34;18.00;99.90
9973;DHT22;5027;53.560;10.062;2022-10-31T01:58:22;18.00;99.90
9973;DHT22;5027;53.560;10.062;2022-10-31T02:00:55;17.90;99.90
9973;DHT22;5027;53.560;10.062;2022-10-31T02:03:22;17.90;99.90
9973;DHT22;5027;53.560;10.062;2022-10-31T02:05:50;18.00;99.90
9973;DHT22;5027;53.560;10.062;2022-10-31T02:08:31;18.00;99.90
9973;DHT22;5027;53.560;10.062;2022-10-31T02:11:00;18.00;99.90
9973;DHT22;5027;53.560;10.062;2022-10-31T02:13:28;18.00;99.90
9973;DHT22;5027;53.560;10.062;2022-10-31T02:16:08;18.00;99.90
9973;DHT22;5027;53.560;10.062;2022-10-31T02:18:35;18.00;99.90
9973;DHT22;5027;53.560;10.062;2022-10-31T02:24:11;18.00;99.90
9973;DHT22;5027;53.560;10.062;2022-10-31T02:26:49;18.00;99.90
9973;DHT22;5027;53.560;10.062;2022-10-31T02:32:29;17.90;99.90
9973;DHT22;5027;53.560;10.062;2022-10-31T02:35:23;17.90;99.90
9973;DHT22;5027;53.560;10.062;2022-10-31T02:40:53;17.90;99.90
9973;DHT22;5027;53.560;10.062;2022-10-31T02:43:45;17.90;99.90
9973;DHT22;5027;53.560;10.062;2022-10-31T02:46:24;17.90;99.90
9973;DHT22;5027;53.560;10.062;2022-10-31T02:48:53;17.90;99.90
9973;DHT22;5027;53.560;10.062;2022-10-31T02:51:22;17.90;99.90
9973;DHT22;5027;53.560;10.062;2022-10-31T02:53:49;17.90;99.90
9973;DHT22;5027;53.560;10.062;2022-10-31T02:56:17;17.90;99.90
9973;DHT22;5027;53.560;10.062;2022-10-31T02:58:54;17.90;99.90
9973;DHT22;5027;53.560;10.062;2022-10-31T03:01:45;17.90;99.90
9973;DHT22;5027;53.560;10.062;2022-10-31T03:07:11;17.90;99.90
9973;DHT22;5027;53.560;10.062;2022-10-31T03:09:55;17.90;99.90
9973;DHT22;5027;53.560;10.062;2022-10-31T03:12:38;17.90;99.90
9973;DHT22;5027;53.560;10.062;2022-10-31T03:15:22;17.90;99.90
9973;DHT22;5027;53.560;10.062;2022-10-31T03:18:00;17.90;99.90
9973;DHT22;5027;53.560;10.062;2022-10-31T03:20:52;17.90;99.90
9973;DHT22;5027;53.560;10.062;2022-10-31T03:23:22;17.90;99.90
9973;DHT22;5027;53.560;10.062;2022-10-31T03:25:52;17.90;99.90
9973;DHT22;5027;53.560;10.062;2022-10-31T03:28:29;17.90;99.90
9973;DHT22;5027;53.560;10.062;2022-10-31T03:30:57;17.80;99.90
9973;DHT22;5027;53.560;10.062;2022-10-31T03:33:32;17.90;99.90
9973;DHT22;5027;53.560;10.062;2022-10-31T03:36:02;17.90;99.90
9973;DHT22;5027;53.560;10.062;2022-10-31T03:38:31;17.80;99.90
9973;DHT22;5027;53.560;10.062;2022-10-31T03:41:03;17.90;99.90
9973;DHT22;5027;53.560;10.062;2022-10-31T03:43:35;17.90;99.90
9973;DHT22;5027;53.560;10.062;2022-10-31T03:46:04;17.80;99.90
9973;DHT22;5027;53.560;10.062;2022-10-31T03:48:31;17.80;99.90
9973;DHT22;5027;53.560;10.062;2022-10-31T03:51:10;17.80;99.90
9973;DHT22;5027;53.560;10.062;2022-10-31T03:53:57;17.80;99.90
9973;DHT22;5027;53.560;10.062;2022-10-31T03:56:29;17.90;99.90
9973;DHT22;5027;53.560;10.062;2022-10-31T03:59:02;17.80;99.90
9973;DHT22;5027;53.560;10.062;2022-10-31T04:01:32;17.80;99.90
9973;DHT22;5027;53.560;10.062;2022-10-31T04:04:02;17.80;99.90
9973;DHT22;5027;53.560;10.062;2022-10-31T04:06:29;17.90;99.90
9973;DHT22;5027;53.560;10.062;2022-10-31T04:09:01;17.90;99.90
9973;DHT22;5027;53.560;10.062;2022-10-31T04:11:33;17.80;99.90
9973;DHT22;5027;53.560;10.062;2022-10-31T04:14:21;17.80;99.90
9973;DHT22;5027;53.560;10.062;2022-10-31T04:16:49;17.90;99.90
9973;DHT22;5027;53.560;10.062;2022-10-31T04:19:16;17.90;99.90
9973;DHT22;5027;53.560;10.062;2022-10-31T04:21:43;17.80;99.90
9973;DHT22;5027;53.560;10.062;2022-10-31T04:24:10;17.80;99.90
9973;DHT22;5027;53.560;10.062;2022-10-31T04:26:41;17.80;99.90
9973;DHT22;5027;53.560;10.062;2022-10-31T04:29:07;17.80;99.90
9973;DHT22;5027;53.560;10.062;2022-10-31T04:31:34;17.90;99.90
9973;DHT22;5027;53.560;10.062;2022-10-31T04:34:01;17.80;99.90
9973;DHT22;5027;53.560;10.062;2022-10-31T04:36:28;17.80;99.90
9973;DHT22;5027;53.560;10.062;2022-10-31T04:38:55;17.80;99.90
9973;DHT22;5027;53.560;10.062;2022-10-31T04:41:44;17.80;99.90
9973;DHT22;5027;53.560;10.062;2022-10-31T04:44:13;17.80;99.90
9973;DHT22;5027;53.560;10.062;2022-10-31T04:46:40;17.80;99.90
9973;DHT22;5027;53.560;10.062;2022-10-31T04:49:07;17.80;99.90
9973;DHT22;5027;53.560;10.062;2022-10-31T04:51:35;17.80;99.90
9973;DHT22;5027;53.560;10.062;2022-10-31T04:54:01;17.80;99.90
9973;DHT22;5027;53.560;10.062;2022-10-31T04:56:57;17.80;99.90
9973;DHT22;5027;53.560;10.062;2022-10-31T04:59:24;17.80;99.90
9973;DHT22;5027;53.560;10.062;2022-10-31T05:01:52;17.80;99.90
9973;DHT22;5027;53.560;10.062;2022-10-31T05:04:27;17.80;99.90
9973;DHT22;5027;53.560;10.062;2022-10-31T05:06:53;17.80;99.90
9973;DHT22;5027;53.560;10.062;2022-10-31T05:09:20;17.80;99.90
9973;DHT22;5027;53.560;10.062;2022-10-31T05:11:47;17.80;99.90
9973;DHT22;5027;53.560;10.062;2022-10-31T05:14:33;17.80;99.90
9973;DHT22;5027;53.560;10.062;2022-10-31T05:17:31;17.80;99.90
9973;DHT22;5027;53.560;10.062;2022-10-31T05:20:23;17.80;99.90
9973;DHT22;5027;53.560;10.062;2022-10-31T05:23:28;17.80;99.90
9973;DHT22;5027;53.560;10.062;2022-10-31T05:25:55;17.80;99.90
9973;DHT22;5027;53.560;10.062;2022-10-31T05:28:21;17.80;99.90
9973;DHT22;5027;53.560;10.062;2022-10-31T05:30:49;17.80;99.90
9973;DHT22;5027;53.560;10.062;2022-10-31T05:33:16;17.80;99.90
9973;DHT22;5027;53.560;10.062;2022-10-31T05:36:01;17.80;99.90
9973;DHT22;5027;53.560;10.062;2022-10-31T05:38:40;17.80;99.90
9973;DHT22;5027;53.560;10.062;2022-10-31T05:41:12;17.80;99.90
9973;DHT22;5027;53.560;10.062;2022-10-31T05:43:45;17.80;99.90
9973;DHT22;5027;53.560;10.062;2022-10-31T05:46:12;17.80;99.90
9973;DHT22;5027;53.560;10.062;2022-10-31T05:49:05;17.80;99.90
9973;DHT22;5027;53.560;10.062;2022-10-31T05:52:07;17.80;99.90
9973;DHT22;5027;53.560;10.062;2022-10-31T05:54:40;17.80;99.90
9973;DHT22;5027;53.560;10.062;2022-10-31T05:57:07;17.80;99.90
9973;DHT22;5027;53.560;10.062;2022-10-31T05:59:35;17.80;99.90
9973;DHT22;5027;53.560;10.062;2022-10-31T06:02:02;17.80;99.90
9973;DHT22;5027;53.560;10.062;2022-10-31T06:04:47;17.80;99.90
9973;DHT22;5027;53.560;10.062;2022-10-31T06:07:14;17.80;99.90
9973;DHT22;5027;53.560;10.062;2022-10-31T06:09:41;17.80;99.90
9973;DHT22;5027;53.560;10.062;2022-10-31T06:12:08;17.80;99.90
9973;DHT22;5027;53.560;10.062;2022-10-31T06:15:07;17.80;99.90
9973;DHT22;5027;53.560;10.062;2022-10-31T06:17:35;17.80;99.90
9973;DHT22;5027;53.560;10.062;2022-10-31T06:20:23;17.80;99.90
9973;DHT22;5027;53.560;10.062;2022-10-31T06:23:02;17.80;99.90
9973;DHT22;5027;53.560;10.062;2022-10-31T06:25:31;17.90;99.90
9973;DHT22;5027;53.560;10.062;2022-10-31T06:27:59;17.80;99.90
9973;DHT22;5027;53.560;10.062;2022-10-31T06:30:35;17.80;99.90
9973;DHT22;5027;53.560;10.062;2022-10-31T06:33:04;17.90;99.90
9973;DHT22;5027;53.560;10.062;2022-10-31T06:35:34;17.80;99.90
9973;DHT22;5027;53.560;10.062;2022-10-31T06:38:01;17.80;99.90
9973;DHT22;5027;53.560;10.062;2022-10-31T06:40:40;17.80;99.90
9973;DHT22;5027;53.560;10.062;2022-10-31T06:43:21;17.80;99.90
9973;DHT22;5027;53.560;10.062;2022-10-31T06:45:51;17.80;99.90
9973;DHT22;5027;53.560;10.062;2022-10-31T06:48:24;17.80;99.90
9973;DHT22;5027;53.560;10.062;2022-10-31T06:51:09;17.80;99.90
9973;DHT22;5027;53.560;10.062;2022-10-31T06:53:36;17.80;99.90
9973;DHT22;5027;53.560;10.062;2022-10-31T06:56:06;17.80;99.90
9973;DHT22;5027;53.560;10.062;2022-10-31T06:58:38;17.80;99.90
9973;DHT22;5027;53.560;10.062;2022-10-31T07:01:07;17.80;99.90
9973;DHT22;5027;53.560;10.062;2022-10-31T07:03:34;17.80;99.90
9973;DHT22;5027;53.560;10.062;2022-10-31T07:06:01;17.80;99.90
9973;DHT22;5027;53.560;10.062;2022-10-31T07:08:27;17.80;99.90
9973;DHT22;5027;53.560;10.062;2022-10-31T07:10:56;17.80;99.90
9973;DHT22;5027;53.560;10.062;2022-10-31T07:13:24;17.80;99.90
9973;DHT22;5027;53.560;10.062;2022-10-31T07:16:03;17.80;99.90
9973;DHT22;5027;53.560;10.062;2022-10-31T07:18:33;17.80;99.90
9973;DHT22;5027;53.560;10.062;2022-10-31T07:21:01;17.80;99.90
9973;DHT22;5027;53.560;10.062;2022-10-31T07:23:27;17.80;99.90
9973;DHT22;5027;53.560;10.062;2022-10-31T07:26:13;17.80;99.90
9973;DHT22;5027;53.560;10.062;2022-10-31T07:28:45;17.80;99.90
9973;DHT22;5027;53.560;10.062;2022-10-31T07:31:14;17.80;99.90
9973;DHT22;5027;53.560;10.062;2022-10-31T07:33:41;17.80;99.90
9973;DHT22;5027;53.560;10.062;2022-10-31T07:36:26;17.80;99.90
9973;DHT22;5027;53.560;10.062;2022-10-31T07:38:56;17.80;99.90
9973;DHT22;5027;53.560;10.062;2022-10-31T07:41:25;17.80;99.90
9973;DHT22;5027;53.560;10.062;2022-10-31T07:43:53;17.80;99.90
9973;DHT22;5027;53.560;10.062;2022-10-31T07:46:43;17.80;99.90
9973;DHT22;5027;53.560;10.062;2022-10-31T07:49:30;17.90;99.90
9973;DHT22;5027;53.560;10.062;2022-10-31T07:52:35;17.80;99.90
9973;DHT22;5027;53.560;10.062;2022-10-31T07:55:20;17.80;99.90
9973;DHT22;5027;53.560;10.062;2022-10-31T08:00:29;17.80;99.90
9973;DHT22;5027;53.560;10.062;2022-10-31T08:03:11;17.80;99.90
9973;DHT22;5027;53.560;10.062;2022-10-31T08:05:57;17.80;99.90
9973;DHT22;5027;53.560;10.062;2022-10-31T08:08:35;17.80;99.90
9973;DHT22;5027;53.560;10.062;2022-10-31T08:11:06;17.90;99.90
9973;DHT22;5027;53.560;10.062;2022-10-31T08:13:32;17.80;99.90
9973;DHT22;5027;53.560;10.062;2022-10-31T08:15:59;17.80;99.90
9973;DHT22;5027;53.560;10.062;2022-10-31T08:18:33;17.80;99.90
9973;DHT22;5027;53.560;10.062;2022-10-31T08:21:00;17.80;99.90
9973;DHT22;5027;53.560;10.062;2022-10-31T08:23:26;17.80;99.90
9973;DHT22;5027;53.560;10.062;2022-10-31T08:25:54;17.80;99.90
9973;DHT22;5027;53.560;10.062;2022-10-31T08:28:22;17.80;99.90
9973;DHT22;5027;53.560;10.062;2022-10-31T08:30:51;17.80;99.90
9973;DHT22;5027;53.560;10.062;2022-10-31T08:33:36;17.80;99.90
9973;DHT22;5027;53.560;10.062;2022-10-31T08:36:27;17.80;99.90
9973;DHT22;5027;53.560;10.062;2022-10-31T08:39:14;17.80;99.90
9973;DHT22;5027;53.560;10.062;2022-10-31T08:41:41;17.80;99.90
9973;DHT22;5027;53.560;10.062;2022-10-31T08:44:11;17.80;99.90
9973;DHT22;5027;53.560;10.062;2022-10-31T08:46:38;17.80;99.90
9973;DHT22;5027;53.560;10.062;2022-10-31T08:49:04;17.80;99.90
9973;DHT22;5027;53.560;10.062;2022-10-31T08:51:32;17.80;99.90
9973;DHT22;5027;53.560;10.062;2022-10-31T08:54:00;17.80;99.90
9973;DHT22;5027;53.560;10.062;2022-10-31T08:56:32;17.80;99.90
9973;DHT22;5027;53.560;10.062;2022-10-31T08:59:02;17.80;99.90
9973;DHT22;5027;53.560;10.062;2022-10-31T09:02:05;17.80;99.90
9973;DHT22;5027;53.560;10.062;2022-10-31T09:04:33;17.80;99.90
9973;DHT22;5027;53.560;10.062;2022-10-31T09:07:00;17.80;99.90
9973;DHT22;5027;53.560;10.062;2022-10-31T09:09:46;17.80;99.90
9973;DHT22;5027;53.560;10.062;2022-10-31T09:12:13;17.80;99.90
9973;DHT22;5027;53.560;10.062;2022-10-31T09:15:07;17.80;99.90
9973;DHT22;5027;53.560;10.062;2022-10-31T09:17:46;17.80;99.90
9973;DHT22;5027;53.560;10.062;2022-10-31T09:20:21;17.80;99.90
9973;DHT22;5027;53.560;10.062;2022-10-31T09:22:55;17.80;99.90
9973;DHT22;5027;53.560;10.062;2022-10-31T09:25:22;17.80;99.90
9973;DHT22;5027;53.560;10.062;2022-10-31T09:28:31;17.80;99.90
9973;DHT22;5027;53.560;10.062;2022-10-31T09:31:10;17.80;99.90
9973;DHT22;5027;53.560;10.062;2022-10-31T09:33:54;17.80;99.90
9973;DHT22;5027;53.560;10.062;2022-10-31T09:36:37;17.80;99.90
9973;DHT22;5027;53.560;10.062;2022-10-31T09:39:08;17.80;99.90
9973;DHT22;5027;53.560;10.062;2022-10-31T09:42:09;17.80;99.90
9973;DHT22;5027;53.560;10.062;2022-10-31T09:50:53;17.80;99.90
9973;DHT22;5027;53.560;10.062;2022-10-31T09:56:23;17.80;99.90
9973;DHT22;5027;53.560;10.062;2022-10-31T09:58:57;17.80;99.90
9973;DHT22;5027;53.560;10.062;2022-10-31T10:01:44;17.80;99.90
9973;DHT22;5027;53.560;10.062;2022-10-31T10:04:32;17.80;99.90
9973;DHT22;5027;53.560;10.062;2022-10-31T10:07:13;17.80;99.90
9973;DHT22;5027;53.560;10.062;2022-10-31T10:10:22;17.90;99.90
9973;DHT22;5027;53.560;10.062;2022-10-31T10:30:21;17.90;99.90
9973;DHT22;5027;53.560;10.062;2022-10-31T10:32:59;17.80;99.90
9973;DHT22;5027;53.560;10.062;2022-10-31T10:38:23;17.90;99.90
9973;DHT22;5027;53.560;10.062;2022-10-31T10:40:53;17.90;99.90
9973;DHT22;5027;53.560;10.062;2022-10-31T10:43:38;17.90;99.90
9973;DHT22;5027;53.560;10.062;2022-10-31T10:49:25;17.90;99.90
9973;DHT22;5027;53.560;10.062;2022-10-31T10:52:10;17.90;99.90
9973;DHT22;5027;53.560;10.062;2022-10-31T10:58:06;17.90;99.90
9973;DHT22;5027;53.560;10.062;2022-10-31T11:00:47;17.80;99.90
9973;DHT22;5027;53.560;10.062;2022-10-31T11:03:15;17.80;99.90
9973;DHT22;5027;53.560;10.062;2022-10-31T11:05:56;17.80;99.90
9973;DHT22;5027;53.560;10.062;2022-10-31T11:08:32;17.80;99.90
9973;DHT22;5027;53.560;10.062;2022-10-31T11:11:06;17.80;99.90
9973;DHT22;5027;53.560;10.062;2022-10-31T11:13:35;17.80;99.90
9973;DHT22;5027;53.560;10.062;2022-10-31T11:16:11;17.80;99.90
9973;DHT22;5027;53.560;10.062;2022-10-31T11:18:42;17.90;99.90
9973;DHT22;5027;53.560;10.062;2022-10-31T11:21:27;17.80;99.90
9973;DHT22;5027;53.560;10.062;2022-10-31T11:24:14;17.80;99.90
9973;DHT22;5027;53.560;10.062;2022-10-31T11:26:43;17.80;99.90
9973;DHT22;5027;53.560;10.062;2022-10-31T11:29:23;17.90;99.90
9973;DHT22;5027;53.560;10.062;2022-10-31T11:31:56;17.90;99.90
9973;DHT22;5027;53.560;10.062;2022-10-31T11:34:30;17.90;99.90
9973;DHT22;5027;53.560;10.062;2022-10-31T11:37:09;18.00;99.90
9973;DHT22;5027;53.560;10.062;2022-10-31T11:39:44;18.00;99.90
9973;DHT22;5027;53.560;10.062;2022-10-31T11:42:11;17.80;99.90
9973;DHT22;5027;53.560;10.062;2022-10-31T11:44:42;17.70;99.90
9973;DHT22;5027;53.560;10.062;2022-10-31T11:47:12;17.70;99.90
9973;DHT22;5027;53.560;10.062;2022-10-31T11:49:41;17.70;99.90
9973;DHT22;5027;53.560;10.062;2022-10-31T11:52:25;17.70;99.90
9973;DHT22;5027;53.560;10.062;2022-10-31T11:55:15;17.80;99.90
9973;DHT22;5027;53.560;10.062;2022-10-31T12:00:27;17.90;99.90
9973;DHT22;5027;53.560;10.062;2022-10-31T12:06:37;17.90;99.90
9973;DHT22;5027;53.560;10.062;2022-10-31T12:08:44;18.00;99.90
9973;DHT22;5027;53.560;10.062;2022-10-31T12:14:32;18.10;99.90
9973;DHT22;5027;53.560;10.062;2022-10-31T12:17:13;18.10;99.90
9973;DHT22;5027;53.560;10.062;2022-10-31T12:19:57;18.10;99.90
9973;DHT22;5027;53.560;10.062;2022-10-31T12:25:28;18.10;99.90
9973;DHT22;5027;53.560;10.062;2022-10-31T12:36:23;18.10;99.90
9973;DHT22;5027;53.560;10.062;2022-10-31T12:39:23;18.10;99.90
9973;DHT22;5027;53.560;10.062;2022-10-31T12:42:13;18.10;99.90
9973;DHT22;5027;53.560;10.062;2022-10-31T12:50:35;18.00;99.90
9973;DHT22;5027;53.560;10.062;2022-10-31T12:59:04;18.00;99.90
9973;DHT22;5027;53.560;10.062;2022-10-31T13:01:39;18.00;99.90
9973;DHT22;5027;53.560;10.062;2022-10-31T13:07:03;18.00;99.90
9973;DHT22;5027;53.560;10.062;2022-10-31T13:09:36;18.00;99.90
9973;DHT22;5027;53.560;10.062;2022-10-31T13:12:22;18.10;99.90
9973;DHT22;5027;53.560;10.062;2022-10-31T13:14:55;18.00;99.90
9973;DHT22;5027;53.560;10.062;2022-10-31T13:17:29;18.10;99.90
9973;DHT22;5027;53.560;10.062;2022-10-31T13:20:25;18.00;99.90
9973;DHT22;5027;53.560;10.062;2022-10-31T13:22:54;18.00;99.90
9973;DHT22;5027;53.560;10.062;2022-10-31T13:25:28;18.00;99.90
9973;DHT22;5027;53.560;10.062;2022-10-31T13:28:03;18.00;99.90
9973;DHT22;5027;53.560;10.062;2022-10-31T13:30:38;18.00;99.90
9973;DHT22;5027;53.560;10.062;2022-10-31T13:33:15;18.10;99.90
9973;DHT22;5027;53.560;10.062;2022-10-31T13:42:15;18.10;99.90
9973;DHT22;5027;53.560;10.062;2022-10-31T13:44:43;18.20;99.90
9973;DHT22;5027;53.560;10.062;2022-10-31T13:47:29;18.20;99.90
9973;DHT22;5027;53.560;10.062;2022-10-31T13:52:45;18.30;99.90
9973;DHT22;5027;53.560;10.062;2022-10-31T13:55:41;18.30;99.90
9973;DHT22;5027;53.560;10.062;2022-10-31T13:58:26;18.30;99.90
9973;DHT22;5027;53.560;10.062;2022-10-31T14:01:16;18.30;99.90
9973;DHT22;5027;53.560;10.062;2022-10-31T14:03:47;18.40;99.90
9973;DHT22;5027;53.560;10.062;2022-10-31T14:06:54;18.40;99.90
9973;DHT22;5027;53.560;10.062;2022-10-31T14:11:53;18.50;99.90
9973;DHT22;5027;53.560;10.062;2022-10-31T14:14:23;18.40;99.90
9973;DHT22;5027;53.560;10.062;2022-10-31T14:16:56;18.40;99.90
9973;DHT22;5027;53.560;10.062;2022-10-31T14:19:23;18.40;99.90
9973;DHT22;5027;53.560;10.062;2022-10-31T14:21:53;18.40;99.90
9973;DHT22;5027;53.560;10.062;2022-10-31T14:27:32;18.40;99.90
9973;DHT22;5027;53.560;10.062;2022-10-31T14:29:52;18.50;99.90
9973;DHT22;5027;53.560;10.062;2022-10-31T14:32:23;18.60;99.90
9973;DHT22;5027;53.560;10.062;2022-10-31T14:48:16;18.70;99.90
9973;DHT22;5027;53.560;10.062;2022-10-31T14:55:48;18.60;99.90
9973;DHT22;5027;53.560;10.062;2022-10-31T14:58:20;18.80;99.90
9973;DHT22;5027;53.560;10.062;2022-10-31T15:00:50;18.60;99.90
9973;DHT22;5027;53.560;10.062;2022-10-31T15:03:32;18.50;99.90
9973;DHT22;5027;53.560;10.062;2022-10-31T15:06:10;18.40;99.90
9973;DHT22;5027;53.560;10.062;2022-10-31T15:08:48;18.30;99.90
9973;DHT22;5027;53.560;10.062;2022-10-31T15:11:21;18.30;99.90
9973;DHT22;5027;53.560;10.062;2022-10-31T15:13:52;18.30;99.90
9973;DHT22;5027;53.560;10.062;2022-10-31T15:16:22;18.30;99.90
9973;DHT22;5027;53.560;10.062;2022-10-31T15:19:03;18.30;99.90
9973;DHT22;5027;53.560;10.062;2022-10-31T15:21:30;18.30;99.90
9973;DHT22;5027;53.560;10.062;2022-10-31T15:23:59;18.20;99.90
9973;DHT22;5027;53.560;10.062;2022-10-31T15:26:31;18.20;99.90
9973;DHT22;5027;53.560;10.062;2022-10-31T15:29:05;18.20;99.90
9973;DHT22;5027;53.560;10.062;2022-10-31T15:31:32;18.20;99.90
9973;DHT22;5027;53.560;10.062;2022-10-31T15:34:04;18.20;99.90
9973;DHT22;5027;53.560;10.062;2022-10-31T15:36:34;18.20;99.90
9973;DHT22;5027;53.560;10.062;2022-10-31T15:39:04;18.20;99.90
9973;DHT22;5027;53.560;10.062;2022-10-31T15:41:51;18.30;99.90
9973;DHT22;5027;53.560;10.062;2022-10-31T15:44:28;18.50;99.90
9973;DHT22;5027;53.560;10.062;2022-10-31T15:47:13;18.40;99.90
9973;DHT22;5027;53.560;10.062;2022-10-31T15:49:51;18.40;99.90
9973;DHT22;5027;53.560;10.062;2022-10-31T15:57:41;18.60;99.90
9973;DHT22;5027;53.560;10.062;2022-10-31T16:00:25;18.50;99.90
9973;DHT22;5027;53.560;10.062;2022-10-31T16:03:07;18.40;99.90
9973;DHT22;5027;53.560;10.062;2022-10-31T16:05:43;18.30;99.90
9973;DHT22;5027;53.560;10.062;2022-10-31T16:14:00;18.50;99.90
9973;DHT22;5027;53.560;10.062;2022-10-31T16:16:31;18.40;99.90
9973;DHT22;5027;53.560;10.062;2022-10-31T16:19:47;18.50;99.90
9973;DHT22;5027;53.560;10.062;2022-10-31T16:22:06;18.40;99.90
9973;DHT22;5027;53.560;10.062;2022-10-31T16:24:50;18.40;99.90
9973;DHT22;5027;53.560;10.062;2022-10-31T16:27:23;18.30;99.90
9973;DHT22;5027;53.560;10.062;2022-10-31T16:29:53;18.20;99.90
9973;DHT22;5027;53.560;10.062;2022-10-31T16:33:00;18.20;99.90
9973;DHT22;5027;53.560;10.062;2022-10-31T16:35:38;18.30;99.90
9973;DHT22;5027;53.560;10.062;2022-10-31T16:38:08;18.50;99.90
9973;DHT22;5027;53.560;10.062;2022-10-31T16:40:38;18.50;99.90
9973;DHT22;5027;53.560;10.062;2022-10-31T16:43:10;18.60;99.90
9973;DHT22;5027;53.560;10.062;2022-10-31T16:45:51;18.70;99.90
9973;DHT22;5027;53.560;10.062;2022-10-31T16:48:20;18.60;99.90
9973;DHT22;5027;53.560;10.062;2022-10-31T16:50:50;18.60;99.90
9973;DHT22;5027;53.560;10.062;2022-10-31T16:53:19;18.40;99.90
9973;DHT22;5027;53.560;10.062;2022-10-31T16:55:53;18.40;99.90
9973;DHT22;5027;53.560;10.062;2022-10-31T16:58:27;18.30;99.90
9973;DHT22;5027;53.560;10.062;2022-10-31T17:00:54;18.40;99.90
9973;DHT22;5027;53.560;10.062;2022-10-31T17:03:21;18.40;99.90
9973;DHT22;5027;53.560;10.062;2022-10-31T17:05:48;18.30;99.90
9973;DHT22;5027;53.560;10.062;2022-10-31T17:08:15;18.20;99.90
9973;DHT22;5027;53.560;10.062;2022-10-31T17:10:43;18.20;99.90
9973;DHT22;5027;53.560;10.062;2022-10-31T17:13:18;18.20;99.90
9973;DHT22;5027;53.560;10.062;2022-10-31T17:15:48;18.20;99.90
9973;DHT22;5027;53.560;10.062;2022-10-31T17:18:16;18.20;99.90
9973;DHT22;5027;53.560;10.062;2022-10-31T17:20:50;18.20;99.90
9973;DHT22;5027;53.560;10.062;2022-10-31T17:23:17;18.10;99.90
9973;DHT22;5027;53.560;10.062;2022-10-31T17:25:43;18.10;99.90
9973;DHT22;5027;53.560;10.062;2022-10-31T17:28:12;18.10;99.90
9973;DHT22;5027;53.560;10.062;2022-10-31T17:30:40;18.00;99.90
9973;DHT22;5027;53.560;10.062;2022-10-31T17:33:15;18.00;99.90
9973;DHT22;5027;53.560;10.062;2022-10-31T17:35:42;18.10;99.90
9973;DHT22;5027;53.560;10.062;2022-10-31T17:38:10;18.10;99.90
9973;DHT22;5027;53.560;10.062;2022-10-31T17:40:38;18.10;99.90
9973;DHT22;5027;53.560;10.062;2022-10-31T17:43:08;18.10;99.90
9973;DHT22;5027;53.560;10.062;2022-10-31T17:45:38;18.10;99.90
9973;DHT22;5027;53.560;10.062;2022-10-31T17:48:05;18.10;99.90
9973;DHT22;5027;53.560;10.062;2022-10-31T17:50:32;18.10;99.90
9973;DHT22;5027;53.560;10.062;2022-10-31T17:52:58;18.00;99.90
9973;DHT22;5027;53.560;10.062;2022-10-31T17:55:25;18.00;99.90
9973;DHT22;5027;53.560;10.062;2022-10-31T17:57:52;18.10;99.90
9973;DHT22;5027;53.560;10.062;2022-10-31T18:00:19;18.00;99.90
9973;DHT22;5027;53.560;10.062;2022-10-31T18:02:48;18.00;99.90
9973;DHT22;5027;53.560;10.062;2022-10-31T18:05:14;18.00;99.90
9973;DHT22;5027;53.560;10.062;2022-10-31T18:07:41;17.90;99.90
9973;DHT22;5027;53.560;10.062;2022-10-31T18:10:08;17.90;99.90
9973;DHT22;5027;53.560;10.062;2022-10-31T18:12:36;17.90;99.90
9973;DHT22;5027;53.560;10.062;2022-10-31T18:15:03;17.90;99.90
9973;DHT22;5027;53.560;10.062;2022-10-31T18:17:30;17.90;99.90
9973;DHT22;5027;53.560;10.062;2022-10-31T18:19:57;17.90;99.90
9973;DHT22;5027;53.560;10.062;2022-10-31T18:22:24;18.00;99.90
9973;DHT22;5027;53.560;10.062;2022-10-31T18:24:50;18.10;99.90
9973;DHT22;5027;53.560;10.062;2022-10-31T18:27:17;18.10;99.90
9973;DHT22;5027;53.560;10.062;2022-10-31T18:29:44;18.20;99.90
9973;DHT22;5027;53.560;10.062;2022-10-31T18:32:10;18.20;99.90
9973;DHT22;5027;53.560;10.062;2022-10-31T18:34:37;18.20;99.90
9973;DHT22;5027;53.560;10.062;2022-10-31T18:37:04;18.10;99.90